Time;durP1;ratioP1;P1;durP2;ratioP2;P2;SDS_P1;SDS_P2;PMS_P1;PMS_P2;Temp;Humidity;BMP_temperature;BMP_pressure;BME280_temperature;BME280_humidity;BME280_pressure;Samples;Min_cycle;Max_cycle;Signal;HPM_P1;HPM_P2
2023/03/24 00:01:00;;;;;;;2.60;2.40;;;15.50;99.90;;;;;;5006261;28;21020;-70
2023/03/24 00:03:28;;;;;;;3.20;2.40;;;15.50;99.90;;;;;;5005997;28;20497;-70
2023/03/24 00:06:02;;;;;;;3.70;3.30;;;15.40;99.90;;;;;;5006865;28;20414;-70
2023/03/24 00:08:34;;;;;;;3.73;2.90;;;15.40;99.90;;;;;;5007349;28;20969;-69
2023/03/24 00:11:05;;;;;;;3.13;2.60;;;15.30;99.90;;;;;;5007186;28;20410;-69
2023/03/24 00:13:37;;;;;;;4.17;3.20;;;15.30;99.90;;;;;;5006996;28;20952;-69
2023/03/24 00:16:04;;;;;;;2.70;2.50;;;15.30;99.90;;;;;;5007329;28;20760;-70
2023/03/24 00:18:30;;;;;;;3.00;2.80;;;15.20;99.90;;;;;;5007130;28;20461;-68
2023/03/24 00:20:57;;;;;;;3.00;2.70;;;15.30;99.90;;;;;;5005162;28;20433;-70
2023/03/24 00:23:26;;;;;;;2.80;2.53;;;15.40;99.90;;;;;;5006862;28;20509;-69
2023/03/24 00:26:04;;;;;;;4.07;2.63;;;15.20;99.90;;;;;;5005611;28;20810;-71
2023/03/24 00:28:32;;;;;;;2.90;2.60;;;15.20;99.90;;;;;;5006684;28;20478;-68
2023/03/24 00:30:59;;;;;;;3.53;2.90;;;15.20;99.90;;;;;;5005744;28;20515;-71
2023/03/24 00:33:24;;;;;;;2.70;2.50;;;15.30;99.90;;;;;;5007029;28;20532;-69
2023/03/24 00:35:50;;;;;;;2.60;2.40;;;15.30;99.90;;;;;;5004922;28;20898;-71
2023/03/24 00:38:16;;;;;;;3.20;2.83;;;15.30;99.90;;;;;;5006770;28;20182;-70
2023/03/24 00:40:47;;;;;;;3.30;3.00;;;15.10;99.90;;;;;;5006695;28;20190;-69
2023/03/24 00:43:13;;;;;;;2.70;2.37;;;15.10;99.90;;;;;;5005243;28;20187;-72
2023/03/24 00:45:45;;;;;;;3.03;2.80;;;15.00;99.90;;;;;;5007153;28;20418;-70
2023/03/24 00:48:12;;;;;;;2.60;2.40;;;15.10;99.90;;;;;;5006249;28;20557;-70
2023/03/24 00:50:38;;;;;;;2.50;2.30;;;15.20;99.90;;;;;;5006952;28;20425;-69
2023/03/24 00:53:04;;;;;;;3.20;2.73;;;15.20;99.90;;;;;;5006346;28;20415;-70
2023/03/24 00:55:30;;;;;;;2.33;2.13;;;15.30;99.90;;;;;;5006636;28;20414;-70
2023/03/24 00:57:56;;;;;;;3.13;2.10;;;15.30;99.90;;;;;;5006752;28;20185;-71
2023/03/24 01:00:24;;;;;;;4.63;2.70;;;15.30;99.90;;;;;;5006333;28;20785;-71
2023/03/24 01:02:52;;;;;;;2.30;2.10;;;15.10;99.90;;;;;;5005671;28;20272;-70
2023/03/24 01:05:26;;;;;;;3.43;2.67;;;15.20;99.90;;;;;;5006810;28;20437;-71
2023/03/24 01:07:55;;;;;;;2.50;1.97;;;15.30;99.90;;;;;;5005689;28;20752;-70
2023/03/24 01:10:25;;;;;;;3.10;2.30;;;15.20;99.90;;;;;;5004895;28;20952;-70
2023/03/24 01:12:55;;;;;;;3.43;2.57;;;15.30;99.90;;;;;;5006533;28;20967;-70
2023/03/24 01:15:23;;;;;;;3.43;2.40;;;15.20;99.90;;;;;;5005327;28;20409;-69
2023/03/24 01:17:52;;;;;;;3.07;2.47;;;15.20;99.90;;;;;;5006192;28;20441;-70
2023/03/24 01:20:18;;;;;;;3.23;2.73;;;15.20;99.90;;;;;;5006508;28;20415;-70
2023/03/24 01:22:45;;;;;;;2.67;2.40;;;15.20;99.90;;;;;;5005514;28;20781;-69
2023/03/24 01:25:17;;;;;;;2.80;2.60;;;15.30;99.90;;;;;;5006001;28;20423;-71
2023/03/24 01:27:45;;;;;;;2.37;2.17;;;15.30;99.90;;;;;;5005635;28;20414;-69
2023/03/24 01:30:13;;;;;;;3.00;2.57;;;15.20;99.90;;;;;;5004439;28;20941;-71
2023/03/24 01:32:39;;;;;;;2.47;2.27;;;15.10;99.90;;;;;;5006244;28;20430;-69
2023/03/24 01:35:05;;;;;;;3.40;2.50;;;14.80;99.90;;;;;;5005371;28;20498;-69
2023/03/24 01:37:31;;;;;;;2.40;2.20;;;14.80;99.90;;;;;;5005362;28;20924;-72
2023/03/24 01:39:56;;;;;;;4.50;2.30;;;15.00;99.90;;;;;;5005629;28;20180;-70
2023/03/24 01:42:25;;;;;;;4.53;2.70;;;15.10;99.90;;;;;;5005699;28;20207;-70
2023/03/24 01:44:56;;;;;;;2.47;2.13;;;15.20;99.90;;;;;;5005535;28;20387;-70
2023/03/24 01:47:22;;;;;;;2.40;2.20;;;15.20;99.90;;;;;;5005638;28;20416;-70
2023/03/24 01:49:55;;;;;;;2.93;2.33;;;15.20;99.90;;;;;;5005592;28;20445;-69
2023/03/24 01:52:30;;;;;;;2.60;2.40;;;15.10;99.90;;;;;;5005166;28;20178;-69
2023/03/24 01:55:07;;;;;;;2.47;2.27;;;15.10;99.90;;;;;;5005053;28;20435;-68
2023/03/24 01:57:40;;;;;;;4.60;2.87;;;15.10;99.90;;;;;;5005335;28;20500;-70
2023/03/24 02:00:10;;;;;;;2.73;2.30;;;15.10;99.90;;;;;;5005192;28;20409;-70
2023/03/24 02:02:39;;;;;;;2.40;2.20;;;15.00;99.90;;;;;;5005182;28;20508;-71
2023/03/24 02:05:07;;;;;;;3.53;2.90;;;14.90;99.90;;;;;;5004994;28;20460;-68
2023/03/24 02:08:00;;;;;;;2.90;2.47;;;14.80;99.90;;;;;;5004629;28;20417;-70
2023/03/24 02:10:29;;;;;;;3.60;2.70;;;14.60;99.90;;;;;;5004939;28;20472;-70
2023/03/24 02:12:55;;;;;;;3.43;2.63;;;14.50;99.90;;;;;;5004833;28;20415;-70
2023/03/24 02:15:22;;;;;;;2.57;2.37;;;14.50;99.90;;;;;;5003704;28;20430;-71
2023/03/24 02:18:32;;;;;;;3.40;2.47;;;14.40;99.90;;;;;;5004772;28;20175;-69
2023/03/24 02:21:15;;;;;;;2.80;2.23;;;14.60;99.90;;;;;;5004809;28;20429;-69
2023/03/24 02:23:50;;;;;;;2.40;2.20;;;14.90;99.90;;;;;;5004949;28;20810;-69
2023/03/24 02:26:44;;;;;;;2.77;2.27;;;15.10;99.90;;;;;;5004925;28;20406;-69
2023/03/24 02:29:34;;;;;;;3.60;2.00;;;15.20;99.90;;;;;;5003211;28;20462;-69
2023/03/24 02:32:09;;;;;;;3.00;2.20;;;15.10;99.90;;;;;;5003364;28;20442;-70
2023/03/24 02:35:02;;;;;;;1.77;1.67;;;15.10;99.90;;;;;;5004903;28;20473;-70
2023/03/24 02:37:50;;;;;;;5.50;2.40;;;15.00;99.90;;;;;;5003658;28;20891;-70
2023/03/24 02:40:42;;;;;;;5.23;2.80;;;15.10;99.90;;;;;;5004525;28;20459;-71
2023/03/24 02:43:25;;;;;;;2.00;1.80;;;15.10;99.90;;;;;;5004629;28;20861;-69
2023/03/24 02:46:26;;;;;;;2.50;2.30;;;15.10;99.90;;;;;;5002869;28;20669;-70
2023/03/24 02:49:24;;;;;;;2.17;2.03;;;15.10;99.90;;;;;;5004560;28;20444;-69
2023/03/24 02:52:22;;;;;;;4.00;2.60;;;15.10;99.90;;;;;;5004047;28;20893;-69
2023/03/24 02:54:59;;;;;;;5.40;1.90;;;15.30;99.90;;;;;;5003782;28;20466;-70
2023/03/24 02:57:38;;;;;;;4.23;1.70;;;15.40;99.90;;;;;;5004563;28;20734;-68
2023/03/24 03:00:31;;;;;;;2.10;1.90;;;15.60;99.90;;;;;;5004489;28;20410;-69
2023/03/24 03:03:11;;;;;;;2.40;2.20;;;15.60;99.90;;;;;;5003191;28;20972;-71
2023/03/24 03:05:59;;;;;;;2.70;2.50;;;15.70;99.90;;;;;;5004303;28;20423;-70
2023/03/24 03:08:32;;;;;;;2.20;2.00;;;15.80;99.90;;;;;;5003786;28;20565;-69
2023/03/24 03:11:00;;;;;;;2.30;2.10;;;15.70;99.90;;;;;;5002810;28;21579;-70
2023/03/24 03:13:36;;;;;;;2.20;2.00;;;15.80;99.90;;;;;;5004340;28;20453;-70
2023/03/24 03:16:11;;;;;;;2.47;2.00;;;15.80;99.90;;;;;;5003969;28;20418;-69
2023/03/24 03:18:45;;;;;;;2.60;2.40;;;15.80;99.90;;;;;;5004077;28;20422;-71
2023/03/24 03:21:14;;;;;;;2.60;2.40;;;15.90;99.90;;;;;;5003327;28;20414;-68
2023/03/24 03:23:46;;;;;;;4.20;2.43;;;15.90;99.90;;;;;;5003466;28;20745;-70
2023/03/24 03:26:16;;;;;;;2.47;2.27;;;16.10;99.90;;;;;;5003949;28;20962;-70
2023/03/24 03:28:48;;;;;;;2.60;2.00;;;16.20;99.90;;;;;;5003709;28;20478;-70
2023/03/24 03:31:22;;;;;;;2.10;1.90;;;16.30;99.90;;;;;;5003943;28;20411;-68
2023/03/24 03:34:15;;;;;;;1.93;1.83;;;16.20;99.90;;;;;;5003718;28;20458;-70
2023/03/24 03:37:06;;;;;;;2.93;2.20;;;16.20;99.90;;;;;;5003161;28;20409;-70
2023/03/24 03:39:39;;;;;;;4.17;1.77;;;16.10;99.90;;;;;;4968206;28;21031;-70
2023/03/24 03:42:05;;;;;;;3.13;2.23;;;16.10;99.90;;;;;;5003957;28;20501;-69
2023/03/24 03:44:31;;;;;;;2.23;1.73;;;16.10;99.90;;;;;;5003961;28;21144;-69
2023/03/24 03:46:57;;;;;;;3.97;2.30;;;16.20;99.90;;;;;;5003568;28;20413;-69
2023/03/24 03:49:24;;;;;;;2.20;2.00;;;16.30;99.90;;;;;;5003682;28;20454;-70
2023/03/24 03:51:51;;;;;;;2.93;2.03;;;16.30;99.90;;;;;;5003144;28;20429;-69
2023/03/24 03:54:18;;;;;;;2.17;1.97;;;16.30;99.90;;;;;;5002779;28;20453;-70
2023/03/24 03:56:45;;;;;;;2.93;1.90;;;16.10;99.90;;;;;;5004159;28;20925;-69
2023/03/24 03:59:24;;;;;;;2.90;2.23;;;16.10;99.90;;;;;;5002416;28;20429;-68
2023/03/24 04:01:50;;;;;;;2.70;2.23;;;16.10;99.90;;;;;;5002430;28;20411;-72
2023/03/24 04:04:47;;;;;;;2.67;2.13;;;16.10;99.90;;;;;;5003947;28;20977;-70
2023/03/24 04:07:32;;;;;;;3.07;1.90;;;16.10;99.90;;;;;;5003480;28;20530;-69
2023/03/24 04:10:17;;;;;;;2.90;2.13;;;16.00;99.90;;;;;;5002462;28;20870;-71
2023/03/24 04:12:48;;;;;;;1.93;1.83;;;15.90;99.90;;;;;;5002468;28;20426;-72
2023/03/24 04:15:20;;;;;;;3.80;2.07;;;16.00;99.90;;;;;;5002234;28;20516;-72
2023/03/24 04:18:19;;;;;;;3.43;2.27;;;16.00;99.90;;;;;;5003385;28;20422;-71
2023/03/24 04:20:50;;;;;;;2.60;2.40;;;15.90;99.90;;;;;;5003962;28;20406;-72
2023/03/24 04:23:29;;;;;;;3.10;2.53;;;15.80;99.90;;;;;;5003378;28;20944;-69
2023/03/24 04:26:25;;;;;;;4.03;2.43;;;15.90;99.90;;;;;;5004375;28;20415;-72
2023/03/24 04:29:16;;;;;;;2.03;1.87;;;16.00;99.90;;;;;;5003286;28;20458;-68
2023/03/24 04:31:57;;;;;;;2.40;2.20;;;16.00;99.90;;;;;;5003919;28;20439;-71
2023/03/24 04:34:31;;;;;;;2.50;2.30;;;15.80;99.90;;;;;;5003313;28;20498;-71
2023/03/24 04:37:03;;;;;;;2.73;2.10;;;15.90;99.90;;;;;;5002862;28;20414;-69
2023/03/24 04:39:33;;;;;;;2.37;2.17;;;15.70;99.90;;;;;;5000717;28;20601;-69
2023/03/24 04:42:03;;;;;;;2.10;1.73;;;15.90;99.90;;;;;;5003347;28;20800;-70
2023/03/24 04:44:31;;;;;;;3.27;2.47;;;16.00;99.90;;;;;;5006676;28;20431;-70
2023/03/24 04:47:00;;;;;;;3.50;2.20;;;16.10;99.90;;;;;;5006696;28;20743;-69
2023/03/24 04:49:26;;;;;;;2.40;2.20;;;16.10;99.90;;;;;;5006783;28;20461;-71
2023/03/24 04:51:52;;;;;;;1.97;1.63;;;16.00;99.90;;;;;;5006901;28;20673;-71
2023/03/24 04:54:20;;;;;;;2.20;2.00;;;16.10;99.90;;;;;;5006356;28;20794;-71
2023/03/24 04:56:50;;;;;;;2.00;1.77;;;16.10;99.90;;;;;;5005349;28;20565;-71
2023/03/24 04:59:16;;;;;;;2.47;1.70;;;16.00;99.90;;;;;;5006826;28;20502;-70
2023/03/24 05:01:48;;;;;;;3.00;1.97;;;16.00;99.90;;;;;;5006681;28;20933;-70
2023/03/24 05:04:14;;;;;;;2.60;2.40;;;16.10;99.90;;;;;;5006460;28;20228;-69
2023/03/24 05:06:40;;;;;;;2.10;1.80;;;16.00;99.90;;;;;;5004742;28;20425;-68
2023/03/24 05:09:06;;;;;;;3.50;2.13;;;16.10;99.90;;;;;;5004936;28;20455;-71
2023/03/24 05:11:32;;;;;;;2.20;2.00;;;16.00;99.90;;;;;;5006317;28;20510;-71
2023/03/24 05:13:57;;;;;;;2.33;1.93;;;16.10;99.90;;;;;;5006590;28;20206;-71
2023/03/24 05:16:23;;;;;;;2.80;1.80;;;16.20;99.90;;;;;;5006538;28;20195;-70
2023/03/24 05:18:48;;;;;;;2.43;1.90;;;16.10;99.90;;;;;;5006463;28;20572;-71
2023/03/24 05:21:14;;;;;;;2.30;1.60;;;16.20;99.90;;;;;;5006221;28;20576;-72
2023/03/24 05:23:39;;;;;;;2.50;1.97;;;16.10;99.90;;;;;;5005464;28;20266;-71
2023/03/24 05:26:05;;;;;;;2.30;2.10;;;16.10;99.90;;;;;;5005958;28;20211;-70
2023/03/24 05:28:31;;;;;;;3.90;2.77;;;16.10;99.90;;;;;;5006073;28;20206;-69
2023/03/24 05:30:57;;;;;;;2.43;2.23;;;16.00;99.90;;;;;;5004801;28;20435;-71
2023/03/24 05:33:23;;;;;;;6.17;2.20;;;16.00;99.90;;;;;;5005315;28;20683;-70
2023/03/24 05:35:48;;;;;;;3.47;2.50;;;16.00;99.90;;;;;;5006070;28;20658;-70
2023/03/24 05:38:14;;;;;;;2.30;2.10;;;16.00;99.90;;;;;;5005597;28;20259;-69
2023/03/24 05:40:40;;;;;;;3.57;3.00;;;15.90;99.90;;;;;;5004847;28;20709;-70
2023/03/24 05:43:07;;;;;;;6.23;3.40;;;15.90;99.90;;;;;;5005914;28;20411;-71
2023/03/24 05:45:32;;;;;;;2.87;2.57;;;15.80;99.90;;;;;;5005514;28;20184;-71
2023/03/24 05:47:58;;;;;;;3.33;2.50;;;15.80;99.90;;;;;;5005576;28;20418;-71
2023/03/24 05:50:24;;;;;;;2.53;2.33;;;15.70;99.90;;;;;;5005728;28;20459;-70
2023/03/24 05:52:51;;;;;;;3.60;2.43;;;15.70;99.90;;;;;;5003497;28;20634;-71
2023/03/24 05:55:18;;;;;;;3.50;2.80;;;15.90;99.90;;;;;;5005060;28;20445;-71
2023/03/24 05:57:44;;;;;;;3.10;2.80;;;16.00;99.90;;;;;;5027276;22;20497;-73
2023/03/24 06:00:15;;;;;;;3.67;2.90;;;16.00;99.90;;;;;;5024934;28;20931;-71
2023/03/24 06:02:42;;;;;;;3.60;2.43;;;16.10;99.90;;;;;;5024524;28;20494;-70
2023/03/24 06:05:08;;;;;;;4.87;2.00;;;16.20;99.90;;;;;;5014234;28;20501;-71
2023/03/24 06:07:35;;;;;;;2.83;2.33;;;15.90;99.90;;;;;;5013974;28;20434;-71
2023/03/24 06:10:03;;;;;;;3.50;2.90;;;15.80;99.90;;;;;;5017812;28;20491;-71
2023/03/24 06:12:29;;;;;;;2.70;2.50;;;15.90;99.90;;;;;;5004685;28;20411;-70
2023/03/24 06:14:56;;;;;;;2.70;2.50;;;15.90;99.90;;;;;;5020695;28;20410;-73
2023/03/24 06:17:23;;;;;;;2.70;2.47;;;15.90;99.90;;;;;;5024143;28;20445;-71
2023/03/24 06:19:49;;;;;;;2.57;2.37;;;15.80;99.90;;;;;;5023737;28;20839;-71
2023/03/24 06:22:19;;;;;;;3.27;2.97;;;15.90;99.90;;;;;;5006422;28;20428;-70
2023/03/24 06:24:48;;;;;;;4.00;3.20;;;16.00;99.90;;;;;;5005103;28;20418;-73
2023/03/24 06:27:17;;;;;;;4.60;2.80;;;16.00;99.90;;;;;;5012980;28;20793;-70
2023/03/24 06:29:42;;;;;;;5.00;3.60;;;16.00;99.90;;;;;;5024036;28;20458;-71
2023/03/24 06:32:09;;;;;;;3.10;2.80;;;15.90;99.90;;;;;;5023624;28;20421;-70
2023/03/24 06:34:36;;;;;;;4.30;3.03;;;15.80;99.90;;;;;;5017812;28;20188;-71
2023/03/24 06:37:01;;;;;;;3.93;2.90;;;15.80;99.90;;;;;;5003644;28;20438;-73
2023/03/24 06:39:27;;;;;;;4.00;3.37;;;15.90;99.90;;;;;;5021895;28;20932;-74
2023/03/24 06:41:53;;;;;;;6.33;4.90;;;15.90;99.90;;;;;;5015134;28;20772;-70
2023/03/24 06:44:18;;;;;;;3.40;3.10;;;15.70;99.90;;;;;;5004001;28;20458;-71
2023/03/24 06:46:44;;;;;;;3.73;3.30;;;15.80;99.90;;;;;;5004717;28;20180;-71
2023/03/24 06:49:10;;;;;;;4.07;2.50;;;15.90;99.90;;;;;;5003129;28;20294;-70
2023/03/24 06:51:36;;;;;;;2.70;2.50;;;15.90;99.90;;;;;;5003840;28;20523;-71
2023/03/24 06:54:02;;;;;;;3.57;3.23;;;15.90;99.90;;;;;;5003602;28;20188;-69
2023/03/24 06:56:29;;;;;;;3.30;2.73;;;15.70;99.90;;;;;;5002648;28;20172;-71
2023/03/24 06:58:55;;;;;;;3.33;3.00;;;15.40;99.90;;;;;;5004467;28;20463;-72
2023/03/24 07:01:21;;;;;;;7.90;3.60;;;15.40;99.90;;;;;;5023366;28;20926;-75
2023/03/24 07:03:47;;;;;;;3.50;3.00;;;15.10;99.90;;;;;;5023506;28;20411;-70
2023/03/24 07:06:12;;;;;;;3.77;3.13;;;15.30;99.90;;;;;;5013442;28;20444;-71
2023/03/24 07:08:39;;;;;;;4.00;3.00;;;15.50;99.90;;;;;;5003291;28;20227;-73
2023/03/24 07:11:06;;;;;;;3.23;2.93;;;15.60;99.90;;;;;;5004270;28;20203;-73
2023/03/24 07:13:32;;;;;;;3.50;3.20;;;15.60;99.90;;;;;;5018860;28;20414;-70
2023/03/24 07:15:57;;;;;;;3.40;3.10;;;15.50;99.90;;;;;;5024152;28;20416;-72
2023/03/24 07:18:23;;;;;;;3.77;3.43;;;15.40;99.90;;;;;;5021629;28;20239;-74
2023/03/24 07:20:48;;;;;;;4.20;3.47;;;15.30;99.90;;;;;;5026882;28;20186;-72
2023/03/24 07:23:14;;;;;;;3.90;3.50;;;15.40;99.90;;;;;;5024489;28;20289;-74
2023/03/24 07:25:40;;;;;;;4.03;3.30;;;15.20;99.90;;;;;;5024667;28;20179;-71
2023/03/24 07:28:06;;;;;;;6.57;4.60;;;15.10;99.90;;;;;;5021047;28;20225;-71
2023/03/24 07:30:34;;;;;;;4.13;2.80;;;15.10;99.90;;;;;;5021949;28;20421;-72
2023/03/24 07:33:01;;;;;;;4.30;3.70;;;15.10;99.90;;;;;;5005716;28;20425;-71
2023/03/24 07:35:27;;;;;;;5.80;3.97;;;15.10;99.90;;;;;;5003385;28;20876;-73
2023/03/24 07:38:00;;;;;;;4.13;3.73;;;14.80;99.90;;;;;;5001863;28;20445;-71
2023/03/24 07:40:25;;;;;;;5.33;4.03;;;14.90;99.90;;;;;;5002957;28;20799;-72
2023/03/24 07:42:51;;;;;;;4.70;3.97;;;15.00;99.90;;;;;;5004154;28;20429;-71
2023/03/24 07:45:17;;;;;;;3.70;3.33;;;14.90;99.90;;;;;;5008608;28;20182;-71
2023/03/24 07:47:44;;;;;;;4.20;3.33;;;14.80;99.90;;;;;;5022736;28;20253;-72
2023/03/24 07:50:11;;;;;;;4.37;3.80;;;14.80;99.90;;;;;;5009859;28;20201;-72
2023/03/24 07:52:38;;;;;;;4.33;3.83;;;14.80;99.90;;;;;;5003150;28;20416;-71
2023/03/24 07:55:07;;;;;;;4.40;4.00;;;14.70;99.90;;;;;;5014015;28;20440;-72
2023/03/24 07:57:36;;;;;;;4.40;3.93;;;14.70;99.90;;;;;;5022744;28;20506;-71
2023/03/24 08:02:59;;;;;;;3.77;3.47;;;14.70;99.90;;;;;;4997983;28;20943;-71
2023/03/24 08:05:28;;;;;;;3.30;3.00;;;14.80;99.90;;;;;;5002966;28;20694;-70
2023/03/24 08:07:54;;;;;;;6.13;4.23;;;15.00;99.90;;;;;;5003273;28;20208;-71
2023/03/24 08:10:29;;;;;;;3.83;3.43;;;14.80;99.90;;;;;;5003628;28;21205;-71
2023/03/24 08:12:56;;;;;;;5.27;3.30;;;15.00;99.90;;;;;;5003004;28;21132;-70
2023/03/24 08:15:22;;;;;;;4.77;3.30;;;15.00;99.90;;;;;;5003441;28;20403;-70
2023/03/24 08:17:49;;;;;;;4.13;3.07;;;15.00;99.90;;;;;;5023061;28;20429;-69
2023/03/24 08:20:15;;;;;;;4.00;3.70;;;15.00;99.90;;;;;;5017226;28;20526;-73
2023/03/24 08:22:43;;;;;;;3.87;3.47;;;14.90;99.90;;;;;;5024758;28;20424;-71
2023/03/24 08:25:11;;;;;;;3.60;3.30;;;15.10;99.90;;;;;;5008533;28;20433;-74
2023/03/24 08:27:37;;;;;;;5.67;3.87;;;15.30;99.90;;;;;;5010832;28;20795;-75
2023/03/24 08:30:09;;;;;;;3.43;3.13;;;15.30;99.90;;;;;;5026295;28;20536;-73
2023/03/24 08:32:35;;;;;;;3.70;3.27;;;15.10;99.90;;;;;;5026460;28;20409;-72
2023/03/24 08:35:03;;;;;;;3.93;3.40;;;15.20;99.90;;;;;;5025128;28;20425;-69
2023/03/24 08:37:30;;;;;;;4.93;3.47;;;15.30;99.90;;;;;;5007533;28;20430;-71
2023/03/24 08:39:57;;;;;;;4.93;3.80;;;15.10;99.90;;;;;;5006197;28;20497;-72
2023/03/24 08:42:24;;;;;;;6.73;4.40;;;15.10;99.90;;;;;;5008357;28;20447;-72
2023/03/24 08:44:50;;;;;;;3.93;3.50;;;15.00;99.90;;;;;;5025614;28;20439;-75
2023/03/24 08:47:16;;;;;;;5.30;3.60;;;15.00;99.90;;;;;;5025628;28;20444;-71
2023/03/24 08:49:41;;;;;;;3.63;3.27;;;15.10;99.90;;;;;;5025866;28;20790;-72
2023/03/24 08:52:07;;;;;;;4.90;3.53;;;14.90;99.90;;;;;;5009087;28;20188;-72
2023/03/24 08:54:33;;;;;;;4.00;2.87;;;14.90;99.90;;;;;;5005768;28;20282;-72
2023/03/24 08:56:58;;;;;;;5.30;3.10;;;15.10;99.90;;;;;;5006083;28;20274;-70
2023/03/24 08:59:24;;;;;;;5.60;3.30;;;15.10;99.90;;;;;;5023137;28;20440;-72
2023/03/24 09:01:50;;;;;;;3.63;3.33;;;15.30;99.90;;;;;;5025384;28;20249;-74
2023/03/24 09:04:15;;;;;;;3.10;2.80;;;15.30;99.90;;;;;;5022827;28;20230;-71
2023/03/24 09:06:41;;;;;;;3.53;3.23;;;15.20;99.90;;;;;;5022372;28;20682;-73
2023/03/24 09:09:07;;;;;;;7.30;3.53;;;15.40;99.90;;;;;;5005466;28;20717;-71
2023/03/24 09:11:32;;;;;;;3.40;2.43;;;15.40;99.90;;;;;;5005483;28;20654;-70
2023/03/24 09:13:58;;;;;;;2.43;2.23;;;15.60;99.90;;;;;;5005743;28;20634;-75
2023/03/24 09:16:23;;;;;;;3.00;2.70;;;15.60;99.90;;;;;;5003885;28;20184;-71
2023/03/24 09:18:49;;;;;;;3.73;3.43;;;15.40;99.90;;;;;;5002855;28;20196;-70
2023/03/24 09:21:15;;;;;;;3.20;2.90;;;15.40;99.90;;;;;;5005493;28;20184;-73
2023/03/24 09:23:41;;;;;;;3.87;3.47;;;15.60;99.90;;;;;;5005862;28;20206;-72
2023/03/24 09:26:07;;;;;;;3.50;2.90;;;15.70;99.90;;;;;;5005034;28;20914;-71
2023/03/24 09:28:33;;;;;;;5.43;3.03;;;15.90;99.90;;;;;;5005266;28;20212;-72
2023/03/24 09:31:00;;;;;;;2.87;2.67;;;15.80;99.90;;;;;;5005526;28;20172;-71
2023/03/24 09:33:28;;;;;;;3.17;2.87;;;15.80;99.90;;;;;;5017604;28;20418;-71
2023/03/24 09:35:56;;;;;;;5.60;3.30;;;16.10;99.90;;;;;;5002576;28;20918;-74
2023/03/24 09:38:22;;;;;;;2.67;2.47;;;16.20;99.90;;;;;;5005065;28;20493;-72
2023/03/24 09:40:56;;;;;;;4.83;2.70;;;16.30;99.90;;;;;;5005251;28;20422;-72
2023/03/24 09:43:38;;;;;;;2.50;2.30;;;16.40;99.90;;;;;;5005937;28;20878;-72
2023/03/24 09:46:10;;;;;;;4.00;3.10;;;16.60;99.90;;;;;;5005635;28;20421;-73
2023/03/24 09:48:48;;;;;;;3.10;2.70;;;16.70;99.90;;;;;;5005435;28;20823;-73
2023/03/24 09:51:30;;;;;;;2.33;2.13;;;16.80;99.90;;;;;;5005702;28;20418;-71
2023/03/24 09:53:55;;;;;;;2.70;2.43;;;16.90;99.90;;;;;;5005331;28;20481;-73
2023/03/24 09:56:22;;;;;;;3.00;2.77;;;17.00;99.90;;;;;;5005628;28;20422;-72
2023/03/24 09:58:58;;;;;;;2.90;2.60;;;17.10;99.90;;;;;;5012208;28;20225;-70
2023/03/24 10:01:23;;;;;;;2.50;2.30;;;16.60;99.90;;;;;;5024691;28;20413;-70
2023/03/24 10:03:51;;;;;;;2.43;2.23;;;16.50;99.90;;;;;;5006641;28;20453;-71
2023/03/24 10:06:25;;;;;;;3.00;2.70;;;16.30;99.90;;;;;;5005075;28;20509;-71
2023/03/24 10:09:46;;;;;;;2.60;2.40;;;16.40;99.90;;;;;;5017455;28;20460;-70
2023/03/24 10:12:30;;;;;;;2.30;2.10;;;16.60;99.90;;;;;;4924703;29;20430;-70
2023/03/24 10:15:01;;;;;;;3.73;2.43;;;17.10;99.90;;;;;;5004610;28;20412;-71
2023/03/24 10:17:49;;;;;;;2.47;2.20;;;17.10;99.90;;;;;;5004735;28;20431;-72
2023/03/24 10:20:14;;;;;;;2.23;2.03;;;17.30;99.90;;;;;;5019543;28;20952;-74
2023/03/24 10:22:55;;;;;;;2.40;1.90;;;17.50;99.90;;;;;;5024072;28;20414;-69
2023/03/24 10:25:36;;;;;;;3.03;2.30;;;17.80;99.90;;;;;;5023352;28;20183;-71
2023/03/24 10:28:13;;;;;;;2.17;1.80;;;18.00;99.90;;;;;;5004777;28;20527;-70
2023/03/24 10:30:42;;;;;;;2.90;1.80;;;17.80;99.90;;;;;;5004142;28;20415;-74
2023/03/24 10:33:10;;;;;;;3.87;2.00;;;17.70;99.90;;;;;;5004296;28;20411;-70
2023/03/24 10:35:42;;;;;;;2.20;1.90;;;17.80;99.90;;;;;;5004322;28;20422;-73
2023/03/24 10:38:26;;;;;;;3.67;1.53;;;17.70;99.90;;;;;;5003371;28;20451;-76
2023/03/24 10:40:53;;;;;;;2.23;1.70;;;17.60;99.90;;;;;;5002137;28;20434;-71
2023/03/24 10:43:20;;;;;;;2.00;1.63;;;17.60;99.90;;;;;;5003804;28;20419;-72
2023/03/24 10:45:51;;;;;;;2.30;1.40;;;17.90;99.90;;;;;;5017444;28;20479;-74
2023/03/24 10:49:10;;;;;;;1.77;1.67;;;18.00;99.90;;;;;;5003433;28;20490;-73
2023/03/24 10:51:36;;;;;;;1.83;1.53;;;18.00;99.90;;;;;;4943475;28;20433;-71
2023/03/24 10:54:24;;;;;;;1.40;1.30;;;17.80;99.90;;;;;;4943209;28;20460;-75
2023/03/24 10:57:02;;;;;;;1.47;1.27;;;17.80;99.90;;;;;;4996596;28;20437;-74
2023/03/24 10:59:33;;;;;;;2.23;1.50;;;17.60;99.90;;;;;;5010518;28;20430;-72
2023/03/24 11:02:32;;;;;;;2.20;1.40;;;17.50;99.90;;;;;;5023758;28;21103;-75
2023/03/24 11:05:01;;;;;;;2.50;1.47;;;17.70;99.90;;;;;;5023280;28;20442;-72
2023/03/24 11:07:43;;;;;;;1.37;1.27;;;17.40;99.90;;;;;;5023509;28;20442;-73
2023/03/24 11:10:08;;;;;;;2.20;1.10;;;17.70;99.90;;;;;;5004340;28;20789;-71
2023/03/24 11:12:37;;;;;;;2.97;1.90;;;17.90;99.90;;;;;;5023509;28;20580;-72
2023/03/24 11:15:12;;;;;;;2.17;1.50;;;18.10;99.90;;;;;;5023581;28;20175;-71
2023/03/24 11:17:38;;;;;;;2.17;1.00;;;18.50;99.90;;;;;;5023054;28;20436;-75
2023/03/24 11:20:18;;;;;;;2.90;2.10;;;19.10;99.90;;;;;;5022970;28;20418;-71
2023/03/24 11:22:58;;;;;;;1.20;1.10;;;19.10;99.90;;;;;;5019586;28;20175;-71
2023/03/24 11:25:28;;;;;;;1.50;1.23;;;18.50;99.90;;;;;;5009687;28;20426;-71
2023/03/24 11:27:59;;;;;;;1.20;1.10;;;18.50;99.90;;;;;;5003657;28;20609;-72
2023/03/24 11:30:31;;;;;;;1.70;1.60;;;18.70;99.90;;;;;;5003982;28;20494;-71
2023/03/24 11:32:57;;;;;;;1.40;1.13;;;18.60;99.90;;;;;;5003375;28;20441;-73
2023/03/24 11:35:23;;;;;;;1.80;1.10;;;18.50;99.90;;;;;;5003527;28;20801;-71
2023/03/24 11:37:49;;;;;;;1.40;1.30;;;18.80;99.90;;;;;;5003520;28;20437;-69
2023/03/24 11:40:24;;;;;;;2.37;1.70;;;18.60;99.90;;;;;;5003250;28;20175;-70
2023/03/24 11:43:02;;;;;;;2.23;1.10;;;18.40;99.90;;;;;;5003156;28;20258;-72
2023/03/24 11:45:38;;;;;;;1.07;0.97;;;18.40;99.90;;;;;;5010548;28;20409;-69
2023/03/24 11:48:25;;;;;;;1.30;1.20;;;18.20;99.90;;;;;;5022980;28;20435;-71
2023/03/24 11:50:51;;;;;;;2.60;1.33;;;18.00;99.90;;;;;;5023068;28;20410;-70
2023/03/24 11:53:25;;;;;;;1.00;0.70;;;17.90;99.90;;;;;;5026481;28;20920;-70
2023/03/24 11:56:18;;;;;;;1.23;1.10;;;17.70;99.90;;;;;;5027279;28;20471;-71
2023/03/24 11:58:49;;;;;;;1.07;0.97;;;17.40;99.90;;;;;;4985863;28;20457;-70
2023/03/24 12:01:26;;;;;;;1.40;0.97;;;17.60;99.90;;;;;;5007175;28;20929;-69
2023/03/24 12:04:26;;;;;;;1.10;0.93;;;17.70;99.90;;;;;;5006605;28;20422;-74
2023/03/24 12:07:06;;;;;;;1.37;0.80;;;18.10;99.90;;;;;;5005717;28;20419;-75
2023/03/24 12:10:10;;;;;;;3.07;1.00;;;17.70;99.90;;;;;;5009616;28;20624;-70
2023/03/24 12:13:06;;;;;;;1.43;0.80;;;17.60;99.90;;;;;;5003985;28;20430;-74
2023/03/24 12:15:43;;;;;;;1.80;0.80;;;17.80;99.90;;;;;;5008717;28;20411;-70
2023/03/24 12:18:18;;;;;;;1.60;0.70;;;18.00;99.90;;;;;;5026625;28;20429;-71
2023/03/24 12:20:53;;;;;;;1.20;0.70;;;17.80;99.90;;;;;;5015043;28;20944;-72
2023/03/24 12:23:33;;;;;;;3.13;1.00;;;17.60;99.90;;;;;;5007077;28;20460;-70
2023/03/24 12:26:20;;;;;;;0.90;0.70;;;17.60;99.90;;;;;;5007506;28;20409;-74
2023/03/24 12:29:07;;;;;;;1.50;0.70;;;17.50;99.90;;;;;;5006558;28;20494;-70
2023/03/24 12:31:35;;;;;;;1.87;1.00;;;17.80;99.90;;;;;;5006814;28;20429;-70
2023/03/24 12:34:22;;;;;;;1.87;0.90;;;18.20;99.90;;;;;;5006543;28;20418;-70
2023/03/24 12:37:10;;;;;;;2.47;1.47;;;18.30;99.90;;;;;;5006868;28;20779;-71
2023/03/24 12:39:56;;;;;;;1.27;0.70;;;18.30;99.90;;;;;;5006270;28;20419;-70
2023/03/24 12:42:24;;;;;;;1.57;0.83;;;18.40;99.90;;;;;;5006227;28;20472;-69
2023/03/24 12:45:21;;;;;;;0.93;0.70;;;18.30;99.90;;;;;;5006121;28;20767;-70
2023/03/24 12:48:13;;;;;;;1.10;0.90;;;18.10;99.90;;;;;;5006420;28;21045;-73
2023/03/24 12:50:56;;;;;;;1.43;0.83;;;18.10;99.90;;;;;;5006657;28;20402;-72
2023/03/24 12:53:42;;;;;;;2.40;0.60;;;18.30;99.90;;;;;;5032365;22;20588;-71
2023/03/24 12:56:22;;;;;;;2.20;0.80;;;18.00;99.90;;;;;;5005086;28;20419;-69
2023/03/24 12:59:04;;;;;;;1.20;0.70;;;18.20;99.90;;;;;;5006650;28;20422;-71
2023/03/24 13:01:43;;;;;;;1.23;0.80;;;18.10;99.90;;;;;;5005811;28;20944;-70
2023/03/24 13:04:27;;;;;;;2.90;0.90;;;17.90;99.90;;;;;;5005802;28;20501;-71
2023/03/24 13:07:10;;;;;;;1.00;0.80;;;17.70;99.90;;;;;;5005080;28;20419;-70
2023/03/24 13:10:04;;;;;;;0.90;0.77;;;17.50;99.90;;;;;;5006568;28;20458;-71
2023/03/24 13:12:47;;;;;;;0.90;0.63;;;17.60;99.90;;;;;;5005082;28;20498;-70
2023/03/24 13:15:16;;;;;;;0.93;0.70;;;17.80;99.90;;;;;;5005310;28;20612;-70
2023/03/24 13:17:57;;;;;;;2.10;0.80;;;17.70;99.90;;;;;;5006039;28;20761;-70